»·PEaware :: N285 KPSC-KYKM

N285 :: KPSC-KYKM

FLIGHT INFORMATION

Flight Status: Arrived
Operator: Privately registered:
United States
More flights under this callsign
Pilot: Leo F. (613)
Aircraft: BEECH AIRCRAFT SUPER KING AIR COMMUTER
(BE20)
More flights by this aircraft type
Origin: KPSC Tri-Cities
United States
Destination: KYKM Yakima Air Term/Mcallister
United States
More flights between these airports :: More routes between these airports
Route: PSC7 V204 YKM
File this flight plan on PilotEdge
Remarks:
Altitude:
(Current/Filed)
6,000ft
Speed:
(Current/Filed)
220kts
Departed: 08-Sep-19 10:43 AM
Arrived: 08-Sep-19 11:07 AM
Distance/Time
Traveled:
62nm/0:24
Distance/Time
To Go:
Arrived

Flight Plot

Page will automatically refresh every two minutes.


Map Options




Map Legend


Flown Route
Filed Route
Departure Airport
Arrival Airport
Navaid (VOR, NDB)
Fix

Horizontal Profiles

Position Reports

Time Latitude Longitude Heading Altitude Ground
Speed
08-Sep-19 10:22 46.266994 -119.107768 224 410ft 0kts
08-Sep-19 10:23 46.266992 -119.107771 224 410ft 0kts
08-Sep-19 10:24 46.266990 -119.107774 224 410ft 0kts
08-Sep-19 10:25 46.266988 -119.107778 224 410ft 0kts
08-Sep-19 10:26 46.266986 -119.107781 224 410ft 0kts
08-Sep-19 10:27 46.266984 -119.107783 224 410ft 0kts
08-Sep-19 10:28 46.266981 -119.107787 224 410ft 0kts
08-Sep-19 10:29 46.266979 -119.107790 224 410ft 0kts
08-Sep-19 10:30 46.266977 -119.107792 224 410ft 0kts
08-Sep-19 10:31 46.266975 -119.107795 224 410ft 0kts
08-Sep-19 10:32 46.266973 -119.107798 224 410ft 0kts
08-Sep-19 10:33 46.266971 -119.107801 224 410ft 0kts
08-Sep-19 10:34 46.266969 -119.107804 224 410ft 0kts
08-Sep-19 10:35 46.266967 -119.107807 224 410ft 0kts
08-Sep-19 10:36 46.267006 -119.109402 341 410ft 5kts
08-Sep-19 10:37 46.268460 -119.109209 332 410ft 0kts
08-Sep-19 10:38 46.268461 -119.109210 332 410ft 0kts
08-Sep-19 10:39 46.268463 -119.109212 332 410ft 0kts
08-Sep-19 10:40 46.268465 -119.109213 332 410ft 0kts
08-Sep-19 10:41 46.268467 -119.109215 332 410ft 0kts
08-Sep-19 10:42 46.265098 -119.115493 223 431ft 114kts
08-Sep-19 10:43 46.234391 -119.167475 228 2129ft 205kts
08-Sep-19 10:44 46.198262 -119.226713 228 3885ft 184kts
08-Sep-19 10:45 46.208428 -119.283267 330 5861ft 179kts
08-Sep-19 10:46 46.256146 -119.331809 320 5993ft 228kts
08-Sep-19 10:47 46.303821 -119.389581 320 5991ft 216kts
08-Sep-19 10:48 46.345851 -119.449327 291 5984ft 214kts
08-Sep-19 10:50 46.361411 -119.532291 288 5990ft 214kts
08-Sep-19 10:51 46.380086 -119.614040 290 5991ft 214kts
08-Sep-19 10:52 46.399258 -119.695279 290 5988ft 206kts
08-Sep-19 10:53 46.416647 -119.770185 290 5990ft 189kts
08-Sep-19 10:54 46.433116 -119.841430 290 5992ft 184kts
08-Sep-19 10:55 46.449273 -119.911580 290 5996ft 182kts
08-Sep-19 10:56 46.464761 -119.979447 289 5991ft 164kts
08-Sep-19 10:57 46.459463 -120.039785 240 5861ft 168kts
08-Sep-19 10:58 46.451030 -120.105313 292 5018ft 168kts
08-Sep-19 10:59 46.472636 -120.160994 298 4992ft 154kts
08-Sep-19 11:00 46.487755 -120.219079 290 4999ft 154kts
08-Sep-19 11:01 46.503546 -120.283395 289 3999ft 178kts
08-Sep-19 11:02 46.519204 -120.346083 288 3775ft 150kts
08-Sep-19 11:03 46.532801 -120.400463 288 2960ft 124kts
08-Sep-19 11:04 46.543528 -120.444176 289 2369ft 122kts
08-Sep-19 11:05 46.555665 -120.492680 291 1707ft 125kts
08-Sep-19 11:06 46.566092 -120.533818 293 1098ft 57kts
08-Sep-19 11:07 46.568317 -120.539447 40 1098ft 14kts
08-Sep-19 11:08 46.570195 -120.538381 168 1098ft 0kts
08-Sep-19 11:09 46.570192 -120.538380 168 1098ft 0kts
08-Sep-19 11:10 46.570190 -120.538380 168 1098ft 0kts
08-Sep-19 11:11 46.570188 -120.538379 168 1098ft 0kts
08-Sep-19 11:11 46.570186 -120.538379 168 1098ft 0kts
08-Sep-19 11:12 46.570184 -120.538378 168 1098ft 0kts
08-Sep-19 11:14 46.570181 -120.538377 168 1098ft 0kts
08-Sep-19 11:14 46.570180 -120.538377 168 1098ft 0kts
08-Sep-19 11:15 46.570177 -120.538376 168 1098ft 0kts
08-Sep-19 11:16 46.570175 -120.538375 168 1098ft 0kts
08-Sep-19 11:17 46.570173 -120.538375 168 1098ft 0kts
08-Sep-19 11:18 46.570171 -120.538374 168 1098ft 0kts

Navigation Log

Ident Type
Flight plan parsing failed, navigation log unavailable